createdAt,value
2018-12-26T00:00:16.027Z,101146.44
2018-12-26T00:03:19.193Z,101146.14
2018-12-26T00:06:21.161Z,101143.99
2018-12-26T00:09:24.163Z,101134.82
2018-12-26T00:12:26.177Z,101130.59
2018-12-26T00:15:28.128Z,101115.95
2018-12-26T00:18:30.072Z,101127.28
2018-12-26T00:21:32.092Z,101127.28
2018-12-26T00:24:34.112Z,101121.73
2018-12-26T00:27:36.065Z,101127.11
2018-12-26T00:30:38.123Z,101136.66
2018-12-26T00:33:40.011Z,101127.14
2018-12-26T00:36:41.953Z,101120.56
2018-12-26T00:39:43.887Z,101128.13
2018-12-26T00:42:45.824Z,101123.59
2018-12-26T00:45:47.807Z,101117.45
2018-12-26T00:48:49.896Z,101112.74
2018-12-26T00:51:51.893Z,101110.46
2018-12-26T00:54:53.935Z,101100.20
2018-12-26T00:57:55.943Z,101102.55
2018-12-26T01:00:58.013Z,101106.44
2018-12-26T01:04:00.078Z,101103.27
2018-12-26T01:07:02.016Z,101111.73
2018-12-26T01:10:04.588Z,101109.92
2018-12-26T01:13:06.564Z,101116.02
2018-12-26T01:16:08.525Z,101112.55
2018-12-26T01:19:10.483Z,101110.12
2018-12-26T01:22:12.578Z,101103.95
2018-12-26T01:25:14.627Z,101099.19
2018-12-26T01:28:16.538Z,101096.64
2018-12-26T01:31:18.492Z,101098.02
2018-12-26T01:34:20.563Z,101096.86
2018-12-26T01:37:22.512Z,101097.48
2018-12-26T01:40:24.462Z,101098.77
2018-12-26T01:43:26.531Z,101084.67
2018-12-26T01:46:28.541Z,101080.28
2018-12-26T01:49:30.649Z,101086.11
2018-12-26T01:52:32.610Z,101088.67
2018-12-26T01:55:34.633Z,101083.14
2018-12-26T01:58:36.637Z,101078.17
2018-12-26T02:01:38.607Z,101070.61
2018-12-26T02:04:40.580Z,101060.31
2018-12-26T02:07:42.628Z,101066.84
2018-12-26T02:10:44.577Z,101068.21
2018-12-26T02:13:46.564Z,101068.13
2018-12-26T02:16:49.618Z,101071.69
2018-12-26T02:19:51.754Z,101067.97
2018-12-26T02:22:53.705Z,101058.38
2018-12-26T02:25:55.762Z,101065.03
2018-12-26T02:28:57.648Z,101061.77
2018-12-26T02:31:59.701Z,101053.83
2018-12-26T02:35:01.642Z,101045.64
2018-12-26T02:38:03.595Z,101052.00
2018-12-26T02:41:06.101Z,101058.83
2018-12-26T02:44:08.058Z,101051.77
2018-12-26T02:47:10.114Z,101055.31
2018-12-26T02:50:12.028Z,101049.73
2018-12-26T02:53:13.999Z,101056.92
2018-12-26T02:56:17.221Z,101058.58
2018-12-26T02:59:19.176Z,101040.34
2018-12-26T03:02:21.146Z,101037.37
2018-12-26T03:05:24.135Z,101040.17
2018-12-26T03:08:26.078Z,101030.47
2018-12-26T03:11:28.147Z,101032.61
2018-12-26T03:14:30.122Z,101023.43
2018-12-26T03:17:33.925Z,101023.43
2018-12-26T03:20:35.891Z,101022.20
2018-12-26T03:23:37.962Z,101008.17
2018-12-26T03:26:39.987Z,101017.60
2018-12-26T03:29:42.006Z,101025.00
2018-12-26T03:32:44.026Z,101007.88
2018-12-26T03:35:46.420Z,101015.91
2018-12-26T03:38:48.417Z,100996.35
2018-12-26T03:41:50.472Z,100993.77
2018-12-26T03:44:52.519Z,100984.22
2018-12-26T03:47:54.602Z,100994.02
2018-12-26T03:50:56.579Z,100996.66
2018-12-26T03:53:58.555Z,100979.75
2018-12-26T03:57:06.018Z,100990.59
2018-12-26T04:00:06.804Z,100977.19
2018-12-26T04:03:08.805Z,100978.15
2018-12-26T04:06:10.876Z,100985.30
2018-12-26T04:09:12.961Z,100985.95
2018-12-26T04:12:15.079Z,100979.05
2018-12-26T04:15:17.028Z,100990.45
2018-12-26T04:18:19.239Z,100987.77
2018-12-26T04:21:21.124Z,100987.84
2018-12-26T04:24:23.241Z,100977.09
2018-12-26T04:27:25.182Z,100986.11
2018-12-26T04:30:27.126Z,100990.20
2018-12-26T04:33:29.104Z,100990.28
2018-12-26T04:36:31.089Z,100986.47
2018-12-26T04:39:33.038Z,100966.92
2018-12-26T04:42:34.955Z,100958.44
2018-12-26T04:45:36.954Z,100965.58
2018-12-26T04:48:39.047Z,100960.73
2018-12-26T04:51:41.060Z,100971.33
2018-12-26T04:54:42.954Z,100966.33
2018-12-26T04:57:44.997Z,100999.52
2018-12-26T05:00:46.895Z,100993.02
2018-12-26T05:03:48.951Z,100984.91
2018-12-26T05:06:51.033Z,100993.92
2018-12-26T05:09:53.086Z,101003.64
2018-12-26T05:12:55.108Z,101000.66
2018-12-26T05:15:57.038Z,100987.25
2018-12-26T05:18:59.059Z,100996.48
2018-12-26T05:22:01.373Z,100993.17
2018-12-26T05:25:04.098Z,100982.47
2018-12-26T05:28:06.059Z,100995.05
2018-12-26T05:31:07.974Z,100992.72
2018-12-26T05:34:09.965Z,100986.11
2018-12-26T05:37:11.917Z,100974.83
2018-12-26T05:40:13.895Z,100982.72
2018-12-26T05:43:15.845Z,100977.99
2018-12-26T05:46:17.824Z,100969.59
2018-12-26T05:49:19.848Z,100979.06
2018-12-26T05:52:21.804Z,100973.00
2018-12-26T05:55:23.792Z,100979.20
2018-12-26T05:58:25.745Z,100981.64
2018-12-26T06:01:27.650Z,100979.20
2018-12-26T06:04:29.619Z,100977.48
2018-12-26T06:07:31.663Z,100981.03
2018-12-26T06:10:33.615Z,100972.16
2018-12-26T06:13:35.553Z,100972.32
2018-12-26T06:16:37.494Z,100986.80
2018-12-26T06:19:39.560Z,100993.91
2018-12-26T06:22:41.536Z,100991.55
2018-12-26T06:25:43.442Z,101000.96
2018-12-26T06:28:45.394Z,101002.25
2018-12-26T06:31:47.301Z,101008.40
2018-12-26T06:34:49.257Z,101006.64
2018-12-26T06:37:51.217Z,101009.37
2018-12-26T06:40:53.129Z,101015.44
2018-12-26T06:43:55.075Z,101002.25
2018-12-26T06:46:57.042Z,101008.25
2018-12-26T06:49:59.056Z,101016.19
2018-12-26T06:53:02.055Z,101013.00
2018-12-26T06:56:04.063Z,101019.37
2018-12-26T06:59:06.020Z,101022.04
2018-12-26T07:02:08.022Z,101023.34
2018-12-26T07:05:09.970Z,101017.09
2018-12-26T07:08:12.110Z,101026.66
2018-12-26T07:11:14.056Z,101023.92
2018-12-26T07:14:16.008Z,101029.09
2018-12-26T07:17:18.105Z,101043.94
2018-12-26T07:20:20.160Z,101045.62
2018-12-26T07:23:22.132Z,101032.97
2018-12-26T07:26:24.068Z,101041.99
2018-12-26T07:29:26.026Z,101039.63
2018-12-26T07:32:28.070Z,101042.73
2018-12-26T07:35:30.149Z,101046.83
2018-12-26T07:38:32.159Z,101055.34
2018-12-26T07:41:34.132Z,101048.19
2018-12-26T07:44:36.023Z,101049.55
2018-12-26T07:47:38.115Z,101048.97
2018-12-26T07:50:40.204Z,101046.61
2018-12-26T07:53:42.183Z,101044.09
2018-12-26T07:56:44.168Z,101044.70
2018-12-26T07:59:46.215Z,101054.70
2018-12-26T08:02:48.151Z,101053.05
2018-12-26T08:05:50.125Z,101050.16
2018-12-26T08:08:52.082Z,101066.24
2018-12-26T08:11:54.021Z,101064.13
2018-12-26T08:14:55.992Z,101048.32
2018-12-26T08:17:57.947Z,101063.87
2018-12-26T08:21:00.163Z,101063.95
2018-12-26T08:24:02.133Z,101063.56
2018-12-26T08:27:04.173Z,101054.69
2018-12-26T08:30:06.121Z,101053.44
2018-12-26T08:33:08.085Z,101042.44
2018-12-26T08:36:10.026Z,101048.69
2018-12-26T08:39:12.054Z,101037.25
2018-12-26T08:42:14.015Z,101033.62
2018-12-26T08:45:16.053Z,101047.56
2018-12-26T08:48:19.070Z,101045.52
2018-12-26T08:51:21.115Z,101044.24
2018-12-26T08:54:23.096Z,101041.30
2018-12-26T08:57:25.100Z,101047.88
2018-12-26T09:00:26.986Z,101037.56
2018-12-26T09:03:29.004Z,101027.69
2018-12-26T09:06:30.929Z,101026.34
2018-12-26T09:09:32.921Z,101041.36
2018-12-26T09:12:34.831Z,101041.88
2018-12-26T09:15:36.839Z,101039.39
2018-12-26T09:18:38.895Z,101035.95
2018-12-26T09:21:41.202Z,101039.08
2018-12-26T09:24:43.156Z,101040.59
2018-12-26T09:27:45.201Z,101029.20
2018-12-26T09:30:47.127Z,101031.78
2018-12-26T09:33:49.111Z,101039.07
2018-12-26T09:36:51.135Z,101030.41
2018-12-26T09:39:53.208Z,101031.20
2018-12-26T09:42:55.139Z,101035.12
2018-12-26T09:45:57.101Z,101051.66
2018-12-26T09:48:59.023Z,101045.45
2018-12-26T09:52:01.196Z,101050.00
2018-12-26T09:55:03.971Z,101052.73
2018-12-26T09:58:06.075Z,101040.91
2018-12-26T10:01:07.991Z,101040.30
2018-12-26T10:04:09.953Z,101040.59
2018-12-26T10:07:11.946Z,101041.34
2018-12-26T10:10:14.025Z,101048.95
2018-12-26T10:13:16.030Z,101048.05
2018-12-26T10:16:18.086Z,101031.52
2018-12-26T10:19:20.083Z,101037.58
2018-12-26T10:22:22.192Z,101034.92
2018-12-26T10:25:24.125Z,101031.36
2018-12-26T10:28:26.131Z,101040.09
2018-12-26T10:31:28.066Z,101026.80
2018-12-26T10:34:30.018Z,101039.86
2018-12-26T10:37:32.120Z,101006.47
2018-12-26T10:40:34.264Z,101024.84
2018-12-26T10:43:36.176Z,101012.63
2018-12-26T10:46:38.258Z,101018.38
2018-12-26T10:49:40.209Z,101013.89
2018-12-26T10:52:42.308Z,101017.69
2018-12-26T10:55:44.344Z,101015.00
2018-12-26T10:58:46.326Z,101004.00
2018-12-26T11:01:48.282Z,100996.86
2018-12-26T11:04:50.287Z,101005.38
2018-12-26T11:07:52.277Z,101000.56
2018-12-26T11:10:54.376Z,101004.36
2018-12-26T11:13:56.314Z,101007.53
2018-12-26T11:16:58.324Z,101001.17
2018-12-26T11:20:00.313Z,100993.37
2018-12-26T11:23:02.565Z,100996.64
2018-12-26T11:26:04.540Z,100992.14
2018-12-26T11:29:06.471Z,101006.99
2018-12-26T11:32:08.444Z,101005.30
2018-12-26T11:35:10.436Z,101007.13
2018-12-26T11:38:12.471Z,100997.21
2018-12-26T11:41:14.505Z,101002.24
2018-12-26T11:44:16.524Z,100994.13
2018-12-26T11:47:18.530Z,100996.24
2018-12-26T11:50:20.571Z,100996.70
2018-12-26T11:53:22.591Z,100999.77
2018-12-26T11:56:24.572Z,101004.64
2018-12-26T11:59:27.371Z,101006.16
2018-12-26T12:02:29.747Z,101007.67
2018-12-26T12:05:31.687Z,101004.04
2018-12-26T12:08:33.858Z,101014.35
2018-12-26T12:11:35.785Z,101000.23
2018-12-26T12:14:37.780Z,101009.28
2018-12-26T12:17:39.745Z,101005.33
2018-12-26T12:20:41.755Z,101009.95
2018-12-26T12:23:44.155Z,101005.79
2018-12-26T12:26:46.502Z,101009.38
2018-12-26T12:29:48.476Z,101010.03
2018-12-26T12:32:50.523Z,101015.28
2018-12-26T12:35:52.896Z,101017.63
2018-12-26T12:38:54.856Z,101019.81
2018-12-26T12:41:56.763Z,101025.10
2018-12-26T12:44:58.716Z,101017.69
2018-12-26T12:48:00.654Z,101020.10
2018-12-26T12:51:02.573Z,101023.37
2018-12-26T12:54:04.621Z,101019.27
2018-12-26T12:57:06.570Z,101021.47
2018-12-26T13:00:08.610Z,101020.86
2018-12-26T13:03:10.862Z,101024.52
2018-12-26T13:06:12.929Z,101026.66
2018-12-26T13:09:14.936Z,101040.69
2018-12-26T13:12:16.945Z,101021.34
2018-12-26T13:15:18.945Z,101037.59
2018-12-26T13:18:21.945Z,101026.05
2018-12-26T13:21:23.928Z,101034.22
2018-12-26T13:24:27.082Z,101031.13
2018-12-26T13:27:29.042Z,101025.73
2018-12-26T13:30:31.050Z,101035.59
2018-12-26T13:33:32.970Z,101037.86
2018-12-26T13:36:34.961Z,101033.78
2018-12-26T13:39:36.984Z,101039.86
2018-12-26T13:42:39.069Z,101041.20
2018-12-26T13:45:41.155Z,101046.38
2018-12-26T13:48:43.127Z,101045.78
2018-12-26T13:51:45.163Z,101028.17
2018-12-26T13:54:47.151Z,101038.05
2018-12-26T13:57:49.054Z,101049.41
2018-12-26T14:00:51.036Z,101046.97
2018-12-26T14:03:53.002Z,101042.59
2018-12-26T14:06:55.054Z,101046.45
2018-12-26T14:09:57.027Z,101041.20
2018-12-26T14:12:58.921Z,101042.14
2018-12-26T14:16:00.874Z,101049.40
2018-12-26T14:19:02.809Z,101050.16
2018-12-26T14:22:04.833Z,101039.00
2018-12-26T14:25:07.280Z,101052.73
2018-12-26T14:28:09.351Z,101035.44
2018-12-26T14:31:11.323Z,101049.48
2018-12-26T14:34:13.383Z,101048.19
2018-12-26T14:37:15.389Z,101046.44
2018-12-26T14:40:17.415Z,101056.53
2018-12-26T14:43:19.388Z,101049.41
2018-12-26T14:46:21.348Z,101048.05
2018-12-26T14:49:23.318Z,101052.27
2018-12-26T14:52:25.445Z,101044.34
2018-12-26T14:55:27.458Z,101042.97
2018-12-26T14:58:29.383Z,101050.27
2018-12-26T15:01:31.404Z,101047.45
2018-12-26T15:04:33.372Z,101059.49
2018-12-26T15:07:35.374Z,101064.13
2018-12-26T15:10:37.320Z,101061.86
2018-12-26T15:13:39.329Z,101055.03
2018-12-26T15:16:41.253Z,101065.19
2018-12-26T15:19:43.219Z,101054.42
2018-12-26T15:22:45.188Z,101066.42
2018-12-26T15:25:47.437Z,101069.52
2018-12-26T15:28:49.363Z,101067.91
2018-12-26T15:31:51.409Z,101069.73
2018-12-26T15:34:53.667Z,101075.19
2018-12-26T15:37:55.650Z,101073.62
2018-12-26T15:40:57.696Z,101060.26
2018-12-26T15:43:59.719Z,101061.55
2018-12-26T15:47:01.745Z,101069.73
2018-12-26T15:50:04.210Z,101059.73
2018-12-26T15:53:06.260Z,101068.99
2018-12-26T15:56:08.333Z,101075.95
2018-12-26T15:59:10.368Z,101070.94
2018-12-26T16:02:12.336Z,101073.09
2018-12-26T16:05:14.393Z,101081.94
2018-12-26T16:08:16.307Z,101087.11
2018-12-26T16:11:18.384Z,101080.82
2018-12-26T16:14:20.342Z,101077.47
2018-12-26T16:17:22.383Z,101091.04
2018-12-26T16:20:24.430Z,101082.34
2018-12-26T16:23:27.411Z,101080.36
2018-12-26T16:26:29.705Z,101078.30
2018-12-26T16:29:31.850Z,101076.94
2018-12-26T16:32:33.730Z,101082.02
2018-12-26T16:35:35.739Z,101078.67
2018-12-26T16:38:37.707Z,101091.90
2018-12-26T16:41:39.692Z,101088.09
2018-12-26T16:44:41.644Z,101086.20
2018-12-26T16:47:43.684Z,101090.21
2018-12-26T16:50:45.671Z,101087.48
2018-12-26T16:53:47.658Z,101098.40
2018-12-26T16:56:49.624Z,101096.44
2018-12-26T16:59:51.623Z,101088.09
2018-12-26T17:02:53.585Z,101093.71
2018-12-26T17:05:55.556Z,101080.35
2018-12-26T17:08:57.590Z,101090.69
2018-12-26T17:11:59.548Z,101089.00
2018-12-26T17:15:01.588Z,101089.83
2018-12-26T17:18:03.548Z,101097.48
2018-12-26T17:21:05.528Z,101099.64
2018-12-26T17:24:16.302Z,101109.77
2018-12-26T17:27:11.638Z,101099.77
2018-12-26T17:30:13.624Z,101107.95
2018-12-26T17:33:15.560Z,101105.76
2018-12-26T17:36:17.554Z,101109.94
2018-12-26T17:39:19.596Z,101113.41
2018-12-26T17:42:21.617Z,101114.86
2018-12-26T17:45:23.503Z,101121.15
2018-12-26T17:48:26.519Z,101128.13
2018-12-26T17:51:28.446Z,101125.41
2018-12-26T17:54:31.571Z,101123.05
2018-12-26T17:57:33.549Z,101128.59
2018-12-26T18:00:36.100Z,101126.02
2018-12-26T18:03:38.571Z,101130.49
2018-12-26T18:06:41.822Z,101138.92
2018-12-26T18:09:44.540Z,101129.20
2018-12-26T18:12:47.242Z,101135.88
2018-12-26T18:15:50.567Z,101129.95
2018-12-26T18:18:54.591Z,101131.03
2018-12-26T18:21:58.254Z,101136.56
2018-12-26T18:25:00.898Z,101135.41
2018-12-26T18:28:02.868Z,101135.73
2018-12-26T18:31:05.174Z,101138.02
2018-12-26T18:34:07.161Z,101131.48
2018-12-26T18:37:09.124Z,101135.28
2018-12-26T18:40:11.245Z,101137.19
2018-12-26T18:43:13.150Z,101141.65
2018-12-26T18:46:15.160Z,101140.74
2018-12-26T18:49:17.078Z,101135.44
2018-12-26T18:52:19.005Z,101131.64
2018-12-26T18:55:21.173Z,101134.16
2018-12-26T18:58:23.150Z,101124.19
2018-12-26T19:01:30.565Z,101135.03
2018-12-26T19:04:29.076Z,101133.09
2018-12-26T19:07:31.179Z,101126.62
2018-12-26T19:10:33.130Z,101123.15
2018-12-26T19:13:35.280Z,101127.62
2018-12-26T19:16:37.289Z,101130.56
2018-12-26T19:19:39.454Z,101136.02
2018-12-26T19:22:41.437Z,101136.72
2018-12-26T19:25:43.376Z,101141.27
2018-12-26T19:28:45.354Z,101137.26
2018-12-26T19:31:47.438Z,101131.92
2018-12-26T19:34:49.415Z,101135.56
2018-12-26T19:37:51.366Z,101135.56
2018-12-26T19:40:53.413Z,101128.14
2018-12-26T19:43:56.417Z,101123.59
2018-12-26T19:46:58.391Z,101135.70
2018-12-26T19:50:04.918Z,101139.22
2018-12-26T19:53:04.226Z,101136.95
2018-12-26T19:56:06.634Z,101126.16
2018-12-26T19:59:08.717Z,101128.23
2018-12-26T20:02:10.765Z,101129.97
2018-12-26T20:05:13.094Z,101126.95
2018-12-26T20:08:15.045Z,101128.97
2018-12-26T20:11:17.069Z,101131.86
2018-12-26T20:14:19.095Z,101127.22
2018-12-26T20:17:21.141Z,101125.32
2018-12-26T20:20:23.235Z,101126.77
2018-12-26T20:23:27.099Z,101137.84
2018-12-26T20:26:29.144Z,101130.16
2018-12-26T20:29:31.185Z,101131.24
2018-12-26T20:32:34.935Z,101128.19
2018-12-26T20:35:36.864Z,101131.30
2018-12-26T20:38:38.798Z,101134.44
2018-12-26T20:41:40.977Z,101131.24
2018-12-26T20:44:43.053Z,101127.14
2018-12-26T20:47:45.919Z,101127.43
2018-12-26T20:50:47.862Z,101129.48
2018-12-26T20:53:50.373Z,101132.80
2018-12-26T20:56:53.050Z,101127.20
2018-12-26T20:59:55.069Z,101126.12
2018-12-26T21:02:57.053Z,101123.70
2018-12-26T21:06:00.184Z,101123.82
2018-12-26T21:09:02.340Z,101130.66
2018-12-26T21:12:05.502Z,101141.73
2018-12-26T21:15:07.656Z,101131.80
2018-12-26T21:18:09.645Z,101137.34
2018-12-26T21:21:11.663Z,101128.97
2018-12-26T21:24:16.487Z,101128.67
2018-12-26T21:27:20.218Z,101130.80
2018-12-26T21:30:22.143Z,101119.87
2018-12-26T21:33:24.324Z,101126.23
2018-12-26T21:36:26.753Z,101126.70
2018-12-26T21:39:28.803Z,101124.04
2018-12-26T21:42:30.908Z,101130.66
2018-12-26T21:45:32.938Z,101129.22
2018-12-26T21:48:34.871Z,101132.17
2018-12-26T21:51:36.862Z,101129.44
2018-12-26T21:54:38.853Z,101129.44
2018-12-26T21:57:40.989Z,101134.14
2018-12-26T22:00:43.087Z,101135.27
2018-12-26T22:03:45.051Z,101127.06
2018-12-26T22:06:47.098Z,101119.83
2018-12-26T22:09:49.043Z,101127.75
2018-12-26T22:12:51.006Z,101126.67
2018-12-26T22:15:52.975Z,101120.73
2018-12-26T22:18:55.242Z,101120.59
2018-12-26T22:21:57.727Z,101117.31
2018-12-26T22:24:59.681Z,101110.19
2018-12-26T22:28:02.683Z,101116.02
2018-12-26T22:31:04.610Z,101100.98
2018-12-26T22:34:06.963Z,101102.06
2018-12-26T22:37:08.953Z,101100.91
2018-12-26T22:40:10.988Z,101107.99
2018-12-26T22:43:13.020Z,101105.77
2018-12-26T22:46:14.967Z,101102.88
2018-12-26T22:49:16.994Z,101101.73
2018-12-26T22:52:18.873Z,101100.44
2018-12-26T22:55:20.881Z,101098.85
2018-12-26T22:58:22.947Z,101106.05
2018-12-26T23:01:25.061Z,101100.65
2018-12-26T23:04:26.974Z,101090.89
2018-12-26T23:07:28.933Z,101097.73
2018-12-26T23:10:30.943Z,101090.27
2018-12-26T23:13:33.066Z,101096.03
2018-12-26T23:16:35.069Z,101099.66
2018-12-26T23:19:37.112Z,101099.66
2018-12-26T23:22:39.043Z,101094.84
2018-12-26T23:25:41.008Z,101102.80
2018-12-26T23:28:42.959Z,101102.58
2018-12-26T23:31:44.993Z,101105.66
2018-12-26T23:34:47.080Z,101103.05
2018-12-26T23:37:49.011Z,101105.17
2018-12-26T23:40:50.977Z,101104.48
2018-12-26T23:43:52.873Z,101102.25
2018-12-26T23:46:54.813Z,101097.33
2018-12-26T23:49:56.925Z,101100.78
2018-12-26T23:52:58.978Z,101094.70
2018-12-26T23:56:00.876Z,101101.83
2018-12-26T23:59:03.060Z,101087.45
